createdAt,value
2022-09-23T00:00:20.625Z,99.22
2022-09-23T00:03:08.695Z,97.58
2022-09-23T00:06:01.950Z,98.57
2022-09-23T00:15:01.999Z,99.23
2022-09-23T00:17:49.863Z,97.83
2022-09-23T00:20:37.775Z,96.31
2022-09-23T00:23:27.037Z,94.28
2022-09-23T00:26:16.807Z,96.16
2022-09-23T00:29:04.884Z,91.46
2022-09-23T00:31:52.777Z,90.22
2022-09-23T00:34:41.046Z,89.74
2022-09-23T00:37:29.303Z,91.51
2022-09-23T00:40:18.845Z,90.57
2022-09-23T00:43:06.951Z,91.88
2022-09-23T00:45:54.909Z,91.26
2022-09-23T00:48:44.873Z,93.06
2022-09-23T00:51:35.670Z,97.15
2022-09-23T00:54:25.799Z,93.70
2022-09-23T00:57:16.946Z,91.45
2022-09-23T01:00:07.225Z,93.23
2022-09-23T01:02:55.316Z,94.67
2022-09-23T01:05:43.599Z,92.00
2022-09-23T01:08:31.705Z,92.85
2022-09-23T01:11:31.872Z,93.54
2022-09-23T01:14:40.413Z,94.79
2022-09-23T01:17:39.375Z,93.49
2022-09-23T01:20:42.662Z,95.51
2022-09-23T01:23:55.085Z,96.34
2022-09-23T01:26:59.611Z,100.00
2022-09-23T01:30:08.971Z,100.00
2022-09-23T01:33:06.098Z,100.00
2022-09-23T01:36:10.007Z,100.00
2022-09-23T01:39:03.057Z,100.00
2022-09-23T01:42:00.736Z,100.00
2022-09-23T01:44:57.858Z,100.00
2022-09-23T01:47:52.335Z,100.00
2022-09-23T01:50:59.620Z,100.00
2022-09-23T01:53:53.244Z,100.00
2022-09-23T01:56:47.466Z,100.00
2022-09-23T01:59:39.298Z,100.00
2022-09-23T02:02:32.727Z,100.00
2022-09-23T02:05:25.923Z,100.00
2022-09-23T02:08:19.828Z,100.00
2022-09-23T02:11:09.915Z,100.00
2022-09-23T02:14:02.505Z,100.00
2022-09-23T02:16:53.243Z,100.00
2022-09-23T02:19:47.794Z,100.00
2022-09-23T02:22:40.941Z,100.00
2022-09-23T02:25:36.425Z,100.00
2022-09-23T02:28:30.841Z,100.00
2022-09-23T02:31:30.964Z,100.00
2022-09-23T02:34:25.328Z,100.00
2022-09-23T02:37:24.625Z,100.00
2022-09-23T02:40:18.937Z,100.00
2022-09-23T02:43:15.537Z,100.00
2022-09-23T02:46:04.598Z,100.00
2022-09-23T02:48:56.686Z,100.00
2022-09-23T02:51:45.489Z,100.00
2022-09-23T02:54:35.315Z,100.00
2022-09-23T02:57:23.254Z,100.00
2022-09-23T03:00:14.216Z,100.00
2022-09-23T03:03:23.964Z,100.00
2022-09-23T03:06:24.472Z,100.00
2022-09-23T03:09:20.523Z,100.00
2022-09-23T03:12:16.500Z,100.00
2022-09-23T03:15:16.450Z,100.00
2022-09-23T03:18:11.044Z,100.00
2022-09-23T03:21:03.525Z,100.00
2022-09-23T03:23:52.796Z,100.00
2022-09-23T03:26:44.965Z,100.00
2022-09-23T03:29:37.103Z,100.00
2022-09-23T03:32:28.931Z,100.00
2022-09-23T03:35:17.128Z,100.00
2022-09-23T03:38:17.367Z,100.00
2022-09-23T03:41:06.611Z,100.00
2022-09-23T03:43:54.793Z,100.00
2022-09-23T03:46:46.433Z,100.00
2022-09-23T03:49:39.193Z,100.00
2022-09-23T03:52:28.347Z,100.00
2022-09-23T03:55:17.123Z,100.00
2022-09-23T03:58:04.983Z,100.00
2022-09-23T04:00:54.625Z,100.00
2022-09-23T04:03:43.340Z,100.00
2022-09-23T04:06:32.544Z,100.00
2022-09-23T04:09:20.463Z,100.00
2022-09-23T04:12:08.968Z,100.00
2022-09-23T04:14:56.832Z,100.00
2022-09-23T04:17:44.717Z,100.00
2022-09-23T04:20:32.588Z,100.00
2022-09-23T04:23:21.764Z,100.00
2022-09-23T04:26:09.721Z,100.00
2022-09-23T04:28:58.243Z,100.00
2022-09-23T04:31:46.516Z,100.00
2022-09-23T04:34:34.413Z,100.00
2022-09-23T04:37:22.279Z,100.00
2022-09-23T04:40:11.948Z,100.00
2022-09-23T04:42:59.989Z,100.00
2022-09-23T04:45:47.837Z,100.00
2022-09-23T04:48:37.620Z,100.00
2022-09-23T04:51:26.927Z,100.00
2022-09-23T04:54:15.285Z,100.00
2022-09-23T04:57:04.820Z,100.00
2022-09-23T04:59:54.458Z,100.00
2022-09-23T05:02:45.620Z,100.00
2022-09-23T05:05:34.191Z,100.00
2022-09-23T05:08:22.075Z,100.00
2022-09-23T05:11:09.969Z,100.00
2022-09-23T05:13:59.480Z,100.00
2022-09-23T05:16:47.381Z,100.00
2022-09-23T05:19:35.366Z,100.00
2022-09-23T05:22:23.217Z,100.00
2022-09-23T05:25:11.102Z,100.00
2022-09-23T05:27:58.943Z,100.00
2022-09-23T05:30:48.156Z,100.00
2022-09-23T05:33:37.688Z,100.00
2022-09-23T05:36:26.721Z,100.00
2022-09-23T05:39:14.659Z,100.00
2022-09-23T05:42:02.548Z,100.00
2022-09-23T05:44:50.422Z,100.00
2022-09-23T05:47:39.758Z,100.00
2022-09-23T05:50:27.636Z,100.00
2022-09-23T05:53:15.514Z,100.00
2022-09-23T05:58:54.270Z,100.00
2022-09-23T06:01:42.277Z,100.00
2022-09-23T06:04:14.156Z,100.00
2022-09-23T06:06:43.276Z,100.00
2022-09-23T06:09:14.447Z,100.00
2022-09-23T06:11:42.931Z,100.00
2022-09-23T06:14:13.772Z,100.00
2022-09-23T06:16:41.639Z,100.00
2022-09-23T06:19:10.371Z,100.00
2022-09-23T06:21:41.339Z,100.00
2022-09-23T06:24:12.105Z,100.00
2022-09-23T06:26:41.029Z,100.00
2022-09-23T06:29:11.667Z,100.00
2022-09-23T06:31:41.116Z,100.00
2022-09-23T06:34:13.193Z,100.00
2022-09-23T06:36:45.378Z,100.00
2022-09-23T06:39:14.527Z,100.00
2022-09-23T06:41:42.276Z,100.00
2022-09-23T06:44:13.269Z,100.00
2022-09-23T06:46:41.148Z,100.00
2022-09-23T06:49:09.357Z,100.00
2022-09-23T06:51:37.003Z,100.00
2022-09-23T06:54:06.238Z,100.00
2022-09-23T06:56:38.741Z,100.00
2022-09-23T06:59:08.212Z,100.00
2022-09-23T07:01:36.042Z,100.00
2022-09-23T07:04:03.738Z,100.00
2022-09-23T07:06:31.364Z,100.00
2022-09-23T07:08:59.103Z,100.00
2022-09-23T07:11:28.086Z,100.00
2022-09-23T07:13:56.196Z,100.00
2022-09-23T07:16:23.894Z,100.00
2022-09-23T07:18:53.367Z,100.00
2022-09-23T07:21:21.012Z,100.00
2022-09-23T07:23:51.617Z,100.00
2022-09-23T07:26:20.402Z,100.00
2022-09-23T07:28:54.211Z,100.00
2022-09-23T07:31:35.137Z,100.00
2022-09-23T07:34:06.993Z,100.00
2022-09-23T07:36:37.136Z,100.00
2022-09-23T07:39:05.130Z,100.00
2022-09-23T07:41:35.014Z,100.00
2022-09-23T07:44:05.966Z,100.00
2022-09-23T07:46:36.119Z,100.00
2022-09-23T07:49:04.384Z,100.00
2022-09-23T07:51:36.416Z,100.00
2022-09-23T07:54:07.693Z,100.00
2022-09-23T07:56:36.158Z,100.00
2022-09-23T07:59:05.500Z,100.00
2022-09-23T08:01:35.612Z,100.00
2022-09-23T08:04:06.816Z,100.00
2022-09-23T08:06:34.745Z,100.00
2022-09-23T08:09:02.693Z,100.00
2022-09-23T08:11:31.183Z,100.00
2022-09-23T08:13:58.907Z,100.00
2022-09-23T08:16:28.271Z,100.00
2022-09-23T08:18:55.919Z,100.00
2022-09-23T08:21:23.972Z,100.00
2022-09-23T08:23:51.706Z,100.00
2022-09-23T08:26:21.977Z,100.00
2022-09-23T08:28:53.773Z,100.00
2022-09-23T08:31:21.844Z,100.00
2022-09-23T08:33:55.608Z,100.00
2022-09-23T08:36:23.500Z,100.00
2022-09-23T08:38:51.141Z,100.00
2022-09-23T08:41:28.369Z,100.00
2022-09-23T08:44:00.312Z,100.00
2022-09-23T08:46:33.065Z,100.00
2022-09-23T08:49:02.762Z,100.00
2022-09-23T08:51:38.012Z,100.00
2022-09-23T08:54:07.500Z,100.00
2022-09-23T08:56:38.727Z,100.00
2022-09-23T08:59:13.289Z,94.69
2022-09-23T09:01:45.613Z,100.00
2022-09-23T09:04:19.709Z,100.00
2022-09-23T09:06:53.887Z,99.36
2022-09-23T09:09:29.461Z,95.01
2022-09-23T09:12:04.016Z,91.76
2022-09-23T09:14:37.970Z,90.57
2022-09-23T09:17:10.451Z,86.82
2022-09-23T09:19:53.638Z,87.01
2022-09-23T09:22:25.991Z,84.41
2022-09-23T09:25:01.791Z,84.02
2022-09-23T09:27:29.757Z,79.61
2022-09-23T09:30:01.259Z,79.69
2022-09-23T09:32:43.837Z,82.69
2022-09-23T09:35:21.594Z,85.54
2022-09-23T09:37:49.189Z,78.32
2022-09-23T09:40:17.932Z,87.00
2022-09-23T09:42:48.264Z,82.50
2022-09-23T09:45:26.257Z,79.62
2022-09-23T09:48:02.865Z,79.81
2022-09-23T09:50:49.025Z,73.52
2022-09-23T09:53:27.902Z,78.42
2022-09-23T09:56:05.656Z,77.49
2022-09-23T09:58:44.990Z,71.73
2022-09-23T10:01:21.156Z,75.59
2022-09-23T10:03:53.205Z,74.71
2022-09-23T10:06:27.754Z,74.02
2022-09-23T10:09:11.421Z,71.86
2022-09-23T10:11:40.335Z,70.65
2022-09-23T10:14:13.604Z,70.26
2022-09-23T10:16:42.472Z,68.94
2022-09-23T10:19:18.458Z,70.76
2022-09-23T10:21:52.981Z,68.21
2022-09-23T10:24:25.779Z,67.02
2022-09-23T10:26:58.264Z,69.79
2022-09-23T10:29:30.831Z,68.39
2022-09-23T10:32:20.094Z,66.21
2022-09-23T10:34:52.370Z,65.00
2022-09-23T10:37:29.444Z,64.65
2022-09-23T10:40:14.958Z,62.85
2022-09-23T10:43:26.451Z,60.68
2022-09-23T10:46:15.673Z,61.47
2022-09-23T10:48:54.150Z,63.46
2022-09-23T10:51:32.012Z,59.08
2022-09-23T10:54:07.355Z,57.93
2022-09-23T10:56:38.061Z,59.70
2022-09-23T10:59:27.066Z,58.20
2022-09-23T11:02:07.266Z,55.06
2022-09-23T11:05:02.183Z,55.18
2022-09-23T11:07:37.248Z,56.64
2022-09-23T11:10:45.949Z,54.65
2022-09-23T11:13:27.702Z,54.88
2022-09-23T11:16:03.835Z,53.63
2022-09-23T11:18:48.726Z,54.07
2022-09-23T11:21:32.584Z,53.34
2022-09-23T11:24:22.751Z,54.11
2022-09-23T11:27:00.587Z,51.91
2022-09-23T11:29:49.237Z,52.31
2022-09-23T11:32:33.968Z,53.38
2022-09-23T11:35:12.009Z,50.39
2022-09-23T11:37:43.891Z,54.07
2022-09-23T11:40:18.975Z,51.90
2022-09-23T11:42:56.435Z,52.76
2022-09-23T11:45:28.971Z,51.67
2022-09-23T11:48:02.267Z,50.84
2022-09-23T11:50:35.659Z,53.78
2022-09-23T11:53:08.390Z,52.42
2022-09-23T11:55:55.191Z,51.28
2022-09-23T11:58:32.389Z,52.87
2022-09-23T12:01:07.061Z,51.36
2022-09-23T12:03:44.901Z,50.57
2022-09-23T12:06:16.602Z,52.24
2022-09-23T12:08:44.513Z,50.77
2022-09-23T12:11:24.851Z,51.68
2022-09-23T12:14:08.416Z,50.88
2022-09-23T12:16:58.679Z,50.92
2022-09-23T12:20:00.944Z,51.48
2022-09-23T12:22:47.341Z,51.56
2022-09-23T12:25:32.881Z,52.65
2022-09-23T12:28:05.875Z,52.17
2022-09-23T12:30:38.040Z,51.61
2022-09-23T12:33:12.184Z,51.32
2022-09-23T12:35:44.637Z,50.17
2022-09-23T12:38:20.338Z,51.57
2022-09-23T12:40:49.567Z,51.55
2022-09-23T12:43:18.989Z,52.40
2022-09-23T12:45:48.404Z,52.02
2022-09-23T12:48:45.669Z,51.14
2022-09-23T12:51:19.140Z,51.25
2022-09-23T12:53:55.749Z,50.32
2022-09-23T12:57:03.049Z,50.92
2022-09-23T12:59:33.015Z,49.66
2022-09-23T13:02:30.919Z,48.47
2022-09-23T13:05:28.444Z,47.99
2022-09-23T13:08:03.053Z,49.04
2022-09-23T13:10:33.672Z,48.91
2022-09-23T13:13:03.218Z,49.00
2022-09-23T13:15:33.851Z,48.15
2022-09-23T13:18:50.244Z,46.29
2022-09-23T13:21:39.296Z,46.99
2022-09-23T13:24:35.010Z,48.41
2022-09-23T13:27:12.217Z,47.12
2022-09-23T13:29:44.901Z,47.34
2022-09-23T13:32:14.929Z,47.95
2022-09-23T13:34:46.558Z,46.97
2022-09-23T13:37:22.455Z,47.47
2022-09-23T13:39:51.892Z,47.67
2022-09-23T13:42:27.575Z,47.56
2022-09-23T13:45:00.272Z,46.35
2022-09-23T13:47:31.054Z,47.54
2022-09-23T13:49:58.881Z,48.94
2022-09-23T13:52:29.947Z,47.68
2022-09-23T13:54:58.937Z,48.42
2022-09-23T13:57:29.139Z,49.50
2022-09-23T14:00:02.242Z,49.74
2022-09-23T14:02:31.874Z,50.02
2022-09-23T14:04:59.544Z,51.94
2022-09-23T14:07:27.725Z,51.14
2022-09-23T14:09:56.744Z,52.37
2022-09-23T14:12:25.807Z,51.82
2022-09-23T14:14:53.851Z,51.36
2022-09-23T14:17:23.711Z,49.84
2022-09-23T14:19:52.248Z,52.12
2022-09-23T14:22:25.251Z,48.44
2022-09-23T14:24:53.757Z,49.07
2022-09-23T14:27:29.840Z,49.92
2022-09-23T14:29:58.289Z,49.53
2022-09-23T14:32:28.778Z,50.82
2022-09-23T14:35:09.195Z,50.51
2022-09-23T14:38:01.786Z,50.69
2022-09-23T14:40:31.201Z,51.11
2022-09-23T14:43:04.455Z,51.54
2022-09-23T14:45:35.140Z,50.49
2022-09-23T14:48:07.781Z,50.99
2022-09-23T14:50:40.493Z,53.28
2022-09-23T14:53:34.052Z,52.86
2022-09-23T14:56:20.253Z,52.95
2022-09-23T14:58:53.278Z,54.75
2022-09-23T15:01:36.388Z,53.20
2022-09-23T15:04:16.346Z,52.12
2022-09-23T15:06:49.434Z,52.15
2022-09-23T15:09:23.574Z,52.18
2022-09-23T15:11:58.349Z,54.12
2022-09-23T15:14:39.423Z,52.92
2022-09-23T15:17:19.906Z,52.69
2022-09-23T15:19:52.475Z,53.94
2022-09-23T15:22:20.232Z,52.77
2022-09-23T15:24:47.874Z,54.35
2022-09-23T15:27:26.851Z,55.36
2022-09-23T15:29:59.242Z,59.81
2022-09-23T15:32:26.866Z,61.74
2022-09-23T15:34:54.528Z,65.05
2022-09-23T15:37:22.110Z,73.15
2022-09-23T15:39:49.818Z,76.69
2022-09-23T15:42:18.176Z,74.79
2022-09-23T15:44:45.786Z,80.27
2022-09-23T15:47:18.922Z,83.26
2022-09-23T15:49:47.978Z,85.87
2022-09-23T15:52:17.554Z,86.48
2022-09-23T15:54:45.934Z,88.91
2022-09-23T15:57:13.577Z,91.32
2022-09-23T15:59:41.183Z,92.05
2022-09-23T16:02:24.112Z,93.85
2022-09-23T16:04:52.549Z,95.32
2022-09-23T16:07:21.367Z,98.86
2022-09-23T16:09:48.960Z,100.00
2022-09-23T16:12:16.537Z,100.00
2022-09-23T16:14:44.108Z,100.00
2022-09-23T16:17:14.199Z,100.00
2022-09-23T16:19:43.450Z,100.00
2022-09-23T16:22:14.677Z,100.00
2022-09-23T16:24:42.332Z,100.00
2022-09-23T16:27:20.466Z,100.00
2022-09-23T16:29:48.061Z,100.00
2022-09-23T16:32:21.464Z,100.00
2022-09-23T16:34:51.097Z,100.00
2022-09-23T16:37:21.014Z,100.00
2022-09-23T16:39:49.387Z,100.00
2022-09-23T16:42:17.093Z,100.00
2022-09-23T16:44:44.774Z,100.00
2022-09-23T16:47:12.373Z,100.00
2022-09-23T16:49:39.947Z,100.00
2022-09-23T16:52:12.719Z,100.00
2022-09-23T16:54:42.086Z,100.00
2022-09-23T16:57:10.282Z,100.00
2022-09-23T16:59:51.975Z,100.00
2022-09-23T17:02:37.180Z,100.00
2022-09-23T17:05:06.303Z,100.00
2022-09-23T17:07:35.306Z,100.00
2022-09-23T17:10:02.942Z,100.00
2022-09-23T17:12:35.043Z,100.00
2022-09-23T17:15:05.328Z,100.00
2022-09-23T17:17:36.944Z,100.00
2022-09-23T17:20:05.766Z,100.00
2022-09-23T17:22:34.960Z,100.00
2022-09-23T17:25:03.647Z,100.00
2022-09-23T17:27:31.902Z,100.00
2022-09-23T17:29:59.857Z,100.00
2022-09-23T17:32:28.073Z,100.00
2022-09-23T17:34:55.786Z,100.00
2022-09-23T17:37:23.303Z,100.00
2022-09-23T17:39:52.172Z,100.00
2022-09-23T17:42:19.775Z,100.00
2022-09-23T17:44:48.031Z,100.00
2022-09-23T17:47:15.780Z,100.00
2022-09-23T17:49:46.751Z,100.00
2022-09-23T17:52:14.320Z,100.00
2022-09-23T17:54:42.040Z,100.00
2022-09-23T17:57:10.971Z,100.00
2022-09-23T17:59:38.918Z,100.00
2022-09-23T18:02:06.579Z,100.00
2022-09-23T18:04:34.344Z,100.00
2022-09-23T18:07:02.019Z,100.00
2022-09-23T18:09:29.663Z,100.00
2022-09-23T18:11:57.741Z,100.00
2022-09-23T18:14:26.761Z,100.00
2022-09-23T18:16:54.792Z,100.00
2022-09-23T18:19:24.371Z,100.00
2022-09-23T18:21:54.482Z,100.00
2022-09-23T18:24:37.945Z,100.00
2022-09-23T18:27:06.438Z,100.00
2022-09-23T18:29:35.653Z,100.00
2022-09-23T18:32:03.725Z,100.00
2022-09-23T18:34:31.375Z,100.00
2022-09-23T18:36:59.009Z,100.00
2022-09-23T18:39:26.593Z,100.00
2022-09-23T18:41:54.807Z,100.00
2022-09-23T18:44:23.379Z,100.00
2022-09-23T18:46:52.288Z,100.00
2022-09-23T18:49:37.777Z,100.00
2022-09-23T18:52:05.393Z,100.00
2022-09-23T18:54:33.013Z,100.00
2022-09-23T18:57:01.272Z,100.00
2022-09-23T18:59:29.727Z,100.00
2022-09-23T19:01:58.834Z,100.00
2022-09-23T19:04:27.504Z,100.00
2022-09-23T19:06:56.766Z,100.00
2022-09-23T19:09:24.812Z,100.00
2022-09-23T19:11:53.701Z,100.00
2022-09-23T19:14:21.725Z,100.00
2022-09-23T19:16:50.536Z,100.00
2022-09-23T19:19:19.600Z,100.00
2022-09-23T19:21:47.266Z,100.00
2022-09-23T19:24:15.859Z,100.00
2022-09-23T19:26:44.926Z,100.00
2022-09-23T19:29:15.891Z,100.00
2022-09-23T19:31:44.184Z,100.00
2022-09-23T19:34:15.374Z,100.00
2022-09-23T19:36:46.036Z,100.00
2022-09-23T19:39:17.551Z,100.00
2022-09-23T19:41:45.998Z,100.00
2022-09-23T19:44:14.085Z,100.00
2022-09-23T19:46:45.088Z,100.00
2022-09-23T19:49:13.641Z,100.00
2022-09-23T19:51:43.909Z,100.00
2022-09-23T19:54:18.933Z,100.00
2022-09-23T19:56:47.496Z,100.00
2022-09-23T19:59:18.455Z,100.00
2022-09-23T20:01:47.508Z,100.00
2022-09-23T20:04:35.508Z,100.00
2022-09-23T20:07:23.344Z,100.00
2022-09-23T20:10:13.104Z,100.00
2022-09-23T20:13:01.024Z,100.00
2022-09-23T20:15:49.643Z,100.00
2022-09-23T20:18:38.036Z,100.00
2022-09-23T20:21:26.550Z,100.00
2022-09-23T20:24:14.381Z,100.00
2022-09-23T20:27:09.501Z,100.00
2022-09-23T20:29:57.641Z,100.00
2022-09-23T20:32:45.546Z,100.00
2022-09-23T20:35:33.528Z,100.00
2022-09-23T20:38:21.409Z,100.00
2022-09-23T20:41:10.016Z,100.00
2022-09-23T20:43:59.602Z,100.00
2022-09-23T20:46:48.958Z,100.00
2022-09-23T20:49:37.696Z,100.00
2022-09-23T20:52:25.726Z,100.00
2022-09-23T20:55:13.628Z,100.00
2022-09-23T20:58:03.523Z,100.00
2022-09-23T21:00:52.780Z,100.00
2022-09-23T21:03:42.610Z,100.00
2022-09-23T21:06:31.126Z,100.00
2022-09-23T21:09:20.064Z,100.00
2022-09-23T21:12:07.942Z,100.00
2022-09-23T21:14:55.820Z,100.00
2022-09-23T21:17:45.048Z,100.00
2022-09-23T21:20:32.937Z,100.00
2022-09-23T21:23:21.978Z,100.00
2022-09-23T21:26:12.015Z,100.00
2022-09-23T21:29:01.560Z,100.00
2022-09-23T21:31:49.818Z,100.00
2022-09-23T21:34:39.161Z,100.00
2022-09-23T21:37:27.020Z,100.00
2022-09-23T21:40:32.541Z,100.00
2022-09-23T21:43:20.676Z,100.00
2022-09-23T21:46:10.496Z,100.00
2022-09-23T21:48:58.676Z,100.00
2022-09-23T21:51:48.006Z,100.00
2022-09-23T21:54:36.347Z,100.00
2022-09-23T21:57:25.748Z,100.00
2022-09-23T22:00:14.592Z,100.00
2022-09-23T22:03:02.515Z,100.00
2022-09-23T22:06:01.628Z,100.00
2022-09-23T22:08:53.152Z,100.00
2022-09-23T22:11:59.882Z,100.00
2022-09-23T22:14:47.854Z,100.00
2022-09-23T22:17:35.731Z,100.00
2022-09-23T22:20:23.662Z,100.00
2022-09-23T22:23:12.082Z,100.00
2022-09-23T22:26:03.477Z,100.00
2022-09-23T22:29:09.831Z,100.00
2022-09-23T22:32:15.605Z,100.00
2022-09-23T22:35:03.617Z,100.00
2022-09-23T22:37:51.510Z,100.00
2022-09-23T22:40:39.468Z,100.00
2022-09-23T22:43:28.843Z,100.00
2022-09-23T22:46:22.032Z,100.00
2022-09-23T22:49:10.098Z,100.00
2022-09-23T22:51:58.131Z,100.00
2022-09-23T22:54:46.001Z,100.00
2022-09-23T22:57:33.913Z,100.00
2022-09-23T23:00:23.191Z,100.00
2022-09-23T23:03:11.071Z,100.00
2022-09-23T23:06:01.534Z,100.00
2022-09-23T23:08:49.406Z,100.00
2022-09-23T23:11:38.018Z,100.00
2022-09-23T23:14:26.342Z,100.00
2022-09-23T23:17:15.590Z,100.00
2022-09-23T23:20:03.491Z,100.00
2022-09-23T23:22:51.412Z,100.00
2022-09-23T23:25:39.315Z,100.00
2022-09-23T23:28:27.200Z,100.00
2022-09-23T23:31:17.220Z,100.00
2022-09-23T23:34:08.214Z,100.00
2022-09-23T23:36:56.397Z,100.00
2022-09-23T23:39:47.685Z,100.00
2022-09-23T23:42:35.601Z,100.00
2022-09-23T23:45:23.458Z,100.00
2022-09-23T23:48:11.542Z,100.00
2022-09-23T23:51:02.044Z,100.00
2022-09-23T23:53:50.187Z,100.00
2022-09-23T23:56:38.061Z,100.00
2022-09-23T23:59:26.075Z,100.00
